createdAt,value
2022-10-18T00:00:54.474Z,7.08
2022-10-18T00:05:59.293Z,6.40
2022-10-18T00:11:04.425Z,6.49
2022-10-18T00:16:13.763Z,6.48
2022-10-18T00:21:20.957Z,6.28
2022-10-18T00:26:26.549Z,6.30
2022-10-18T00:31:33.691Z,6.41
2022-10-18T00:36:37.682Z,6.32
2022-10-18T00:41:41.726Z,6.00
2022-10-18T00:46:50.449Z,5.78
2022-10-18T00:52:02.879Z,6.00
2022-10-18T00:57:07.759Z,6.37
2022-10-18T01:02:15.164Z,6.57
2022-10-18T01:07:32.601Z,6.72
2022-10-18T01:12:45.966Z,6.63
2022-10-18T01:18:00.915Z,6.48
2022-10-18T01:23:09.842Z,6.59
2022-10-18T01:28:40.227Z,6.38
2022-10-18T01:33:51.224Z,6.56
2022-10-18T01:39:00.140Z,6.40
2022-10-18T01:44:08.538Z,6.18
2022-10-18T01:49:14.411Z,6.23
2022-10-18T01:54:23.600Z,5.88
2022-10-18T01:59:55.504Z,5.85
2022-10-18T02:05:12.686Z,5.70
2022-10-18T02:10:23.798Z,5.93
2022-10-18T02:15:32.413Z,5.88
2022-10-18T02:20:39.828Z,5.75
2022-10-18T02:25:43.872Z,5.69
2022-10-18T02:30:54.216Z,5.47
2022-10-18T02:36:06.100Z,4.87
2022-10-18T02:41:13.258Z,4.79
2022-10-18T02:46:19.020Z,5.06
2022-10-18T02:51:25.342Z,5.11
2022-10-18T02:56:30.341Z,4.87
2022-10-18T03:01:34.652Z,4.53
2022-10-18T03:06:40.187Z,4.68
2022-10-18T03:11:44.955Z,4.35
2022-10-18T03:16:50.211Z,4.32
2022-10-18T03:21:56.969Z,4.48
2022-10-18T03:27:00.957Z,4.57
2022-10-18T03:32:05.325Z,4.49
2022-10-18T03:37:11.274Z,4.24
2022-10-18T03:42:15.280Z,4.11
2022-10-18T03:47:19.581Z,4.56
2022-10-18T03:52:25.028Z,4.55
2022-10-18T03:57:31.684Z,4.66
2022-10-18T04:02:39.315Z,4.79
2022-10-18T04:07:45.975Z,4.82
2022-10-18T04:12:50.221Z,4.57
2022-10-18T04:17:54.813Z,4.67
2022-10-18T04:23:01.364Z,4.57
2022-10-18T04:28:06.219Z,4.29
2022-10-18T04:33:10.938Z,4.42
2022-10-18T04:38:19.111Z,4.58
2022-10-18T04:43:25.611Z,4.77
2022-10-18T04:48:29.805Z,4.97
2022-10-18T04:53:35.205Z,5.08
2022-10-18T04:58:40.316Z,5.10
2022-10-18T05:03:45.721Z,4.97
2022-10-18T05:08:51.477Z,4.42
2022-10-18T05:13:56.104Z,4.52
2022-10-18T05:19:00.701Z,4.86
2022-10-18T05:24:07.002Z,5.26
2022-10-18T05:29:11.948Z,5.13
2022-10-18T05:34:16.895Z,5.49
2022-10-18T05:39:22.451Z,5.50
2022-10-18T05:44:26.588Z,5.89
2022-10-18T05:49:30.876Z,5.92
2022-10-18T05:54:37.848Z,6.51
2022-10-18T05:59:43.165Z,7.12
2022-10-18T06:04:47.221Z,7.47
2022-10-18T06:09:52.623Z,7.92
2022-10-18T06:14:56.719Z,7.63
2022-10-18T06:20:02.075Z,8.17
2022-10-18T06:25:08.265Z,9.36
2022-10-18T09:50:50.076Z,23.47
2022-10-18T09:56:02.388Z,23.47
2022-10-18T10:01:07.336Z,24.25
2022-10-18T10:06:29.734Z,24.18
2022-10-18T10:11:40.512Z,24.10
2022-10-18T10:16:49.492Z,24.21
2022-10-18T10:21:59.794Z,24.07
2022-10-18T10:27:07.115Z,23.84
2022-10-18T10:32:19.753Z,24.15
2022-10-18T10:37:36.629Z,24.39
2022-10-18T10:43:32.891Z,24.28
2022-10-18T10:48:47.940Z,24.50
2022-10-18T10:54:01.171Z,24.67
2022-10-18T10:59:14.891Z,24.54
2022-10-18T11:04:28.561Z,25.05
2022-10-18T11:09:44.793Z,24.89
2022-10-18T11:14:56.252Z,25.29
2022-10-18T11:20:17.843Z,25.15
2022-10-18T11:25:26.789Z,25.12
2022-10-18T11:30:43.836Z,25.15
2022-10-18T11:35:53.795Z,25.28
2022-10-18T11:41:22.690Z,24.68
2022-10-18T11:46:42.563Z,24.85
2022-10-18T11:52:08.751Z,24.68
2022-10-18T11:57:40.811Z,25.09
2022-10-18T12:03:04.431Z,25.03
2022-10-18T12:08:14.993Z,24.58
2022-10-18T12:13:26.888Z,25.10
2022-10-18T12:18:33.314Z,25.54
2022-10-18T12:23:43.880Z,25.99
2022-10-18T12:28:58.762Z,25.36
2022-10-18T12:34:13.493Z,25.71
2022-10-18T12:39:32.282Z,25.79
2022-10-18T12:44:50.569Z,25.61
2022-10-18T12:50:00.248Z,25.27
2022-10-18T12:55:32.263Z,25.67
2022-10-18T13:01:05.510Z,25.72
2022-10-18T13:06:09.604Z,25.08
2022-10-18T13:11:36.063Z,24.97
2022-10-18T13:16:50.615Z,25.89
2022-10-18T13:22:12.182Z,25.73
2022-10-18T13:27:37.090Z,25.49
2022-10-18T13:32:51.148Z,25.12
2022-10-18T13:37:59.967Z,24.91
2022-10-18T13:43:37.313Z,24.24
2022-10-18T13:48:50.881Z,23.82
2022-10-18T13:54:02.727Z,23.86
2022-10-18T13:59:24.016Z,23.79
2022-10-18T14:05:23.863Z,24.08
2022-10-18T14:10:50.118Z,24.20
2022-10-18T14:16:08.461Z,23.77
2022-10-18T14:21:22.089Z,23.99
2022-10-18T14:26:29.527Z,24.26
2022-10-18T14:31:34.636Z,24.07
2022-10-18T14:36:42.715Z,24.10
2022-10-18T14:41:50.476Z,23.37
2022-10-18T14:47:00.873Z,23.23
2022-10-18T14:52:15.821Z,23.72
2022-10-18T14:57:24.986Z,23.07
2022-10-18T15:02:30.686Z,23.08
2022-10-18T15:07:37.387Z,22.31
2022-10-18T15:13:08.286Z,21.40
2022-10-18T15:18:09.589Z,20.98
2022-10-18T15:23:25.345Z,20.24
2022-10-18T15:28:32.329Z,19.43
2022-10-18T15:33:36.702Z,18.52
2022-10-18T15:38:46.228Z,18.01
2022-10-18T15:43:53.200Z,17.53
2022-10-18T15:49:21.979Z,16.82
2022-10-18T15:54:32.440Z,16.48
2022-10-18T15:59:37.532Z,16.23
2022-10-18T16:04:41.800Z,15.76
2022-10-18T16:09:47.125Z,15.39
2022-10-18T16:14:53.039Z,15.28
2022-10-18T16:19:57.064Z,15.11
2022-10-18T16:25:02.429Z,15.07
2022-10-18T16:30:14.548Z,14.11
2022-10-18T16:35:19.405Z,13.59
2022-10-18T16:40:27.134Z,13.65
2022-10-18T16:45:31.353Z,13.37
2022-10-18T16:50:35.561Z,13.23
2022-10-18T16:55:43.718Z,13.46
2022-10-18T17:00:48.260Z,13.04
2022-10-18T17:05:52.368Z,12.81
2022-10-18T17:11:00.095Z,12.70
2022-10-18T17:16:04.601Z,12.69
2022-10-18T17:21:11.007Z,12.35
2022-10-18T17:26:28.438Z,12.09
2022-10-18T17:31:35.742Z,11.95
2022-10-18T17:36:40.360Z,11.52
2022-10-18T17:41:45.729Z,11.72
2022-10-18T17:46:49.862Z,11.65
2022-10-18T17:51:54.336Z,11.20
2022-10-18T17:56:59.860Z,11.35
2022-10-18T18:02:05.406Z,11.36
2022-10-18T18:07:09.705Z,11.27
2022-10-18T18:12:16.129Z,11.23
2022-10-18T18:17:28.714Z,10.81
2022-10-18T18:22:41.848Z,10.61
2022-10-18T18:27:48.309Z,10.81
2022-10-18T18:32:52.411Z,10.75
2022-10-18T18:37:56.669Z,10.89
2022-10-18T18:43:12.409Z,10.70
2022-10-18T18:48:26.776Z,10.56
2022-10-18T18:53:31.763Z,10.29
2022-10-18T18:58:39.474Z,10.15
2022-10-18T19:03:44.549Z,9.97
2022-10-18T19:08:49.691Z,10.28
2022-10-18T19:13:55.728Z,10.33
2022-10-18T19:19:01.635Z,9.99
2022-10-18T19:24:07.445Z,10.14
2022-10-18T19:29:15.662Z,9.82
2022-10-18T19:34:22.999Z,9.52
2022-10-18T19:39:30.760Z,9.22
2022-10-18T19:44:38.188Z,9.34
2022-10-18T19:49:43.184Z,9.56
2022-10-18T19:54:49.776Z,9.61
2022-10-18T19:59:56.711Z,9.70
2022-10-18T20:05:02.385Z,9.44
2022-10-18T20:10:07.461Z,9.40
2022-10-18T20:15:13.533Z,9.18
2022-10-18T20:20:17.669Z,8.95
2022-10-18T20:25:22.209Z,8.94
2022-10-18T20:30:31.754Z,8.76
2022-10-18T20:35:36.709Z,8.75
2022-10-18T20:40:42.087Z,8.58
2022-10-18T20:45:47.602Z,8.52
2022-10-18T20:50:53.223Z,8.55
2022-10-18T20:56:05.243Z,8.60
2022-10-18T21:01:13.361Z,8.83
2022-10-18T21:06:19.781Z,8.44
2022-10-18T21:11:25.434Z,8.44
2022-10-18T21:16:31.913Z,8.49
2022-10-18T21:21:36.012Z,8.22
2022-10-18T21:26:44.270Z,8.42
2022-10-18T21:31:53.659Z,8.37
2022-10-18T21:36:58.421Z,8.07
2022-10-18T21:42:03.728Z,7.53
2022-10-18T21:47:11.188Z,7.10
2022-10-18T21:52:15.517Z,7.12
2022-10-18T21:57:21.046Z,7.13
2022-10-18T22:02:26.939Z,7.26
2022-10-18T22:07:32.493Z,7.47
2022-10-18T22:12:37.516Z,7.21
2022-10-18T22:17:43.285Z,7.16
2022-10-18T22:22:47.581Z,7.31
2022-10-18T22:27:51.645Z,7.30
2022-10-18T22:32:57.255Z,7.43
2022-10-18T22:38:01.769Z,6.94
2022-10-18T22:43:05.865Z,7.24
2022-10-18T22:48:11.251Z,7.24
2022-10-18T22:53:15.401Z,7.16
2022-10-18T22:58:20.219Z,7.24
2022-10-18T23:03:25.654Z,7.36
2022-10-18T23:08:29.606Z,7.42
2022-10-18T23:13:37.365Z,7.66
2022-10-18T23:18:45.030Z,7.21
2022-10-18T23:23:49.062Z,7.04
2022-10-18T23:28:55.184Z,7.04
2022-10-18T23:34:02.805Z,7.09
2022-10-18T23:39:07.090Z,6.97
2022-10-18T23:44:11.522Z,6.94
2022-10-18T23:49:16.963Z,6.87
2022-10-18T23:54:21.118Z,6.21
2022-10-18T23:59:26.837Z,6.22
